sensor_id;sensor_type;location;lat;lon;timestamp;pressure;altitude;pressure_sealevel;temperature;humidity
62436;BME280;48480;50.252;18.848;2022-08-01T00:01:24;98517.62;;;14.74;82.93
62436;BME280;48480;50.252;18.848;2022-08-01T00:03:51;98515.64;;;14.73;82.69
62436;BME280;48480;50.252;18.848;2022-08-01T00:06:17;98515.29;;;14.71;82.60
62436;BME280;48480;50.252;18.848;2022-08-01T00:08:44;98517.48;;;14.69;82.59
62436;BME280;48480;50.252;18.848;2022-08-01T00:11:10;98516.99;;;14.69;82.81
62436;BME280;48480;50.252;18.848;2022-08-01T00:13:37;98514.58;;;14.68;82.79
62436;BME280;48480;50.252;18.848;2022-08-01T00:16:03;98513.67;;;14.66;82.64
62436;BME280;48480;50.252;18.848;2022-08-01T00:18:30;98512.10;;;14.63;82.91
62436;BME280;48480;50.252;18.848;2022-08-01T00:20:57;98503.52;;;14.59;83.19
62436;BME280;48480;50.252;18.848;2022-08-01T00:23:23;98510.88;;;14.60;83.17
62436;BME280;48480;50.252;18.848;2022-08-01T00:25:49;98500.71;;;14.53;82.97
62436;BME280;48480;50.252;18.848;2022-08-01T00:28:16;98505.61;;;14.55;83.08
62436;BME280;48480;50.252;18.848;2022-08-01T00:30:42;98505.08;;;14.53;83.13
62436;BME280;48480;50.252;18.848;2022-08-01T00:33:09;98500.84;;;14.51;83.16
62436;BME280;48480;50.252;18.848;2022-08-01T00:35:35;98498.52;;;14.48;83.07
62436;BME280;48480;50.252;18.848;2022-08-01T00:38:02;98500.18;;;14.44;83.20
62436;BME280;48480;50.252;18.848;2022-08-01T00:40:28;98503.50;;;14.41;83.20
62436;BME280;48480;50.252;18.848;2022-08-01T00:42:55;98503.02;;;14.38;83.04
62436;BME280;48480;50.252;18.848;2022-08-01T00:45:21;98500.13;;;14.37;82.79
62436;BME280;48480;50.252;18.848;2022-08-01T00:47:48;98500.85;;;14.35;82.68
62436;BME280;48480;50.252;18.848;2022-08-01T00:50:15;98501.66;;;14.34;82.53
62436;BME280;48480;50.252;18.848;2022-08-01T00:52:43;98503.29;;;14.32;82.31
62436;BME280;48480;50.252;18.848;2022-08-01T00:55:11;98504.89;;;14.29;82.20
62436;BME280;48480;50.252;18.848;2022-08-01T00:57:39;98504.77;;;14.27;82.25
62436;BME280;48480;50.252;18.848;2022-08-01T01:00:06;98502.83;;;14.25;82.30
62436;BME280;48480;50.252;18.848;2022-08-01T01:02:33;98507.46;;;14.22;82.24
62436;BME280;48480;50.252;18.848;2022-08-01T01:05:01;98504.97;;;14.21;82.25
62436;BME280;48480;50.252;18.848;2022-08-01T01:07:36;98507.73;;;14.19;82.61
62436;BME280;48480;50.252;18.848;2022-08-01T01:10:13;98507.83;;;14.17;82.64
62436;BME280;48480;50.252;18.848;2022-08-01T01:12:48;98505.63;;;14.10;82.92
62436;BME280;48480;50.252;18.848;2022-08-01T01:20:44;98505.77;;;14.06;83.06
62436;BME280;48480;50.252;18.848;2022-08-01T01:26:43;98496.52;;;14.05;83.17
62436;BME280;48480;50.252;18.848;2022-08-01T01:29:20;98496.70;;;14.03;83.00
62436;BME280;48480;50.252;18.848;2022-08-01T01:31:50;98495.00;;;14.03;83.09
62436;BME280;48480;50.252;18.848;2022-08-01T01:34:19;98496.92;;;14.03;82.99
62436;BME280;48480;50.252;18.848;2022-08-01T01:36:48;98496.19;;;14.02;82.67
62436;BME280;48480;50.252;18.848;2022-08-01T01:39:16;98490.95;;;13.99;82.36
62436;BME280;48480;50.252;18.848;2022-08-01T01:41:45;98488.45;;;13.96;82.34
62436;BME280;48480;50.252;18.848;2022-08-01T01:44:14;98487.48;;;13.94;82.11
62436;BME280;48480;50.252;18.848;2022-08-01T01:46:41;98486.02;;;13.92;82.28
62436;BME280;48480;50.252;18.848;2022-08-01T01:49:08;98481.58;;;13.83;82.17
62436;BME280;48480;50.252;18.848;2022-08-01T01:51:37;98490.77;;;13.86;82.41
62436;BME280;48480;50.252;18.848;2022-08-01T01:54:04;98488.36;;;13.83;82.54
62436;BME280;48480;50.252;18.848;2022-08-01T01:56:32;98485.58;;;13.79;82.53
62436;BME280;48480;50.252;18.848;2022-08-01T01:59:01;98492.65;;;13.76;82.64
62436;BME280;48480;50.252;18.848;2022-08-01T02:01:31;98489.30;;;13.72;82.77
62436;BME280;48480;50.252;18.848;2022-08-01T02:03:59;98491.02;;;13.70;82.87
62436;BME280;48480;50.252;18.848;2022-08-01T02:06:29;98489.83;;;13.67;82.44
62436;BME280;48480;50.252;18.848;2022-08-01T02:08:58;98487.61;;;13.63;82.44
62436;BME280;48480;50.252;18.848;2022-08-01T02:11:26;98492.59;;;13.62;82.24
62436;BME280;48480;50.252;18.848;2022-08-01T02:13:59;98491.02;;;13.61;82.08
62436;BME280;48480;50.252;18.848;2022-08-01T02:16:29;98483.77;;;13.60;82.06
62436;BME280;48480;50.252;18.848;2022-08-01T02:18:57;98485.30;;;13.56;81.92
62436;BME280;48480;50.252;18.848;2022-08-01T02:21:28;98487.47;;;13.54;81.85
62436;BME280;48480;50.252;18.848;2022-08-01T02:24:02;98490.53;;;13.53;81.92
62436;BME280;48480;50.252;18.848;2022-08-01T02:26:30;98494.16;;;13.51;81.99
62436;BME280;48480;50.252;18.848;2022-08-01T02:28:59;98488.50;;;13.48;81.66
62436;BME280;48480;50.252;18.848;2022-08-01T02:31:30;98495.84;;;13.42;81.37
62436;BME280;48480;50.252;18.848;2022-08-01T02:34:06;98492.30;;;13.38;81.49
62436;BME280;48480;50.252;18.848;2022-08-01T02:36:36;98493.79;;;13.36;81.88
62436;BME280;48480;50.252;18.848;2022-08-01T02:39:08;98493.40;;;13.36;81.80
62436;BME280;48480;50.252;18.848;2022-08-01T02:41:41;98490.03;;;13.34;81.56
62436;BME280;48480;50.252;18.848;2022-08-01T02:44:10;98478.27;;;13.24;81.87
62436;BME280;48480;50.252;18.848;2022-08-01T02:46:41;98483.91;;;13.29;81.64
62436;BME280;48480;50.252;18.848;2022-08-01T02:49:11;98485.73;;;13.24;81.74
62436;BME280;48480;50.252;18.848;2022-08-01T02:51:40;98486.79;;;13.23;81.77
62436;BME280;48480;50.252;18.848;2022-08-01T02:54:08;98487.92;;;13.23;81.95
62436;BME280;48480;50.252;18.848;2022-08-01T02:56:36;98490.68;;;13.20;81.84
62436;BME280;48480;50.252;18.848;2022-08-01T02:59:22;98493.72;;;13.17;81.67
62436;BME280;48480;50.252;18.848;2022-08-01T03:01:55;98494.13;;;13.13;81.67
62436;BME280;48480;50.252;18.848;2022-08-01T03:04:23;98495.10;;;13.12;81.63
62436;BME280;48480;50.252;18.848;2022-08-01T03:06:52;98494.21;;;13.09;81.81
62436;BME280;48480;50.252;18.848;2022-08-01T03:09:19;98489.41;;;13.06;82.05
62436;BME280;48480;50.252;18.848;2022-08-01T03:11:48;98489.97;;;13.04;82.37
62436;BME280;48480;50.252;18.848;2022-08-01T03:14:15;98487.45;;;13.05;82.40
62436;BME280;48480;50.252;18.848;2022-08-01T03:16:45;98482.58;;;13.04;82.33
62436;BME280;48480;50.252;18.848;2022-08-01T03:19:13;98491.61;;;13.05;82.30
62436;BME280;48480;50.252;18.848;2022-08-01T03:21:42;98492.08;;;13.05;82.45
62436;BME280;48480;50.252;18.848;2022-08-01T03:24:11;98492.80;;;13.06;82.33
62436;BME280;48480;50.252;18.848;2022-08-01T03:26:40;98493.43;;;13.06;82.15
62436;BME280;48480;50.252;18.848;2022-08-01T03:29:15;98493.11;;;13.06;82.12
62436;BME280;48480;50.252;18.848;2022-08-01T03:31:44;98493.89;;;13.09;82.25
62436;BME280;48480;50.252;18.848;2022-08-01T03:34:11;98494.26;;;13.10;82.38
62436;BME280;48480;50.252;18.848;2022-08-01T03:36:46;98491.84;;;13.14;82.63
62436;BME280;48480;50.252;18.848;2022-08-01T03:39:14;98493.81;;;13.17;82.60
62436;BME280;48480;50.252;18.848;2022-08-01T03:41:49;98488.89;;;13.19;82.78
62436;BME280;48480;50.252;18.848;2022-08-01T03:44:21;98491.17;;;13.21;83.08
62436;BME280;48480;50.252;18.848;2022-08-01T03:47:05;98491.91;;;13.24;83.35
62436;BME280;48480;50.252;18.848;2022-08-01T03:49:35;98493.17;;;13.28;83.68
62436;BME280;48480;50.252;18.848;2022-08-01T03:52:04;98495.19;;;13.30;83.68
62436;BME280;48480;50.252;18.848;2022-08-01T03:54:33;98492.77;;;13.25;83.70
62436;BME280;48480;50.252;18.848;2022-08-01T03:57:01;98499.44;;;13.32;83.62
62436;BME280;48480;50.252;18.848;2022-08-01T03:59:29;98502.60;;;13.35;83.64
62436;BME280;48480;50.252;18.848;2022-08-01T04:01:57;98506.28;;;13.38;83.85
62436;BME280;48480;50.252;18.848;2022-08-01T04:04:24;98503.60;;;13.43;83.95
62436;BME280;48480;50.252;18.848;2022-08-01T04:06:51;98507.67;;;13.48;83.84
62436;BME280;48480;50.252;18.848;2022-08-01T04:09:21;98511.46;;;13.53;83.86
62436;BME280;48480;50.252;18.848;2022-08-01T04:11:48;98504.88;;;13.52;83.78
62436;BME280;48480;50.252;18.848;2022-08-01T04:14:14;98513.17;;;13.62;83.65
62436;BME280;48480;50.252;18.848;2022-08-01T04:16:41;98512.45;;;13.67;83.58
62436;BME280;48480;50.252;18.848;2022-08-01T04:19:07;98512.93;;;13.72;83.52
62436;BME280;48480;50.252;18.848;2022-08-01T04:21:35;98513.64;;;13.77;83.54
62436;BME280;48480;50.252;18.848;2022-08-01T04:24:06;98515.40;;;13.81;83.44
62436;BME280;48480;50.252;18.848;2022-08-01T04:26:34;98511.73;;;13.86;83.49
62436;BME280;48480;50.252;18.848;2022-08-01T04:29:04;98510.45;;;13.90;83.50
62436;BME280;48480;50.252;18.848;2022-08-01T04:31:32;98500.30;;;13.89;83.51
62436;BME280;48480;50.252;18.848;2022-08-01T04:34:02;98503.42;;;13.99;83.59
62436;BME280;48480;50.252;18.848;2022-08-01T04:36:30;98503.94;;;14.03;83.49
62436;BME280;48480;50.252;18.848;2022-08-01T04:39:00;98506.55;;;14.11;83.48
62436;BME280;48480;50.252;18.848;2022-08-01T04:41:29;98482.71;;;14.05;83.64
62436;BME280;48480;50.252;18.848;2022-08-01T04:43:57;98503.05;;;14.22;83.86
62436;BME280;48480;50.252;18.848;2022-08-01T04:46:27;98501.35;;;14.29;84.06
62436;BME280;48480;50.252;18.848;2022-08-01T04:48:55;98507.21;;;14.37;84.33
62436;BME280;48480;50.252;18.848;2022-08-01T04:51:22;98512.08;;;14.45;84.59
62436;BME280;48480;50.252;18.848;2022-08-01T04:53:48;98514.83;;;14.53;84.58
62436;BME280;48480;50.252;18.848;2022-08-01T04:56:18;98506.35;;;14.56;84.56
62436;BME280;48480;50.252;18.848;2022-08-01T04:58:46;98513.34;;;14.71;84.56
62436;BME280;48480;50.252;18.848;2022-08-01T05:01:13;98512.59;;;14.79;84.55
62436;BME280;48480;50.252;18.848;2022-08-01T05:03:40;98510.30;;;14.89;84.42
62436;BME280;48480;50.252;18.848;2022-08-01T05:06:06;98514.32;;;14.96;84.43
62436;BME280;48480;50.252;18.848;2022-08-01T05:08:33;98511.71;;;15.06;84.39
62436;BME280;48480;50.252;18.848;2022-08-01T05:10:59;98514.01;;;15.13;84.18
62436;BME280;48480;50.252;18.848;2022-08-01T05:13:27;98513.20;;;15.24;83.80
62436;BME280;48480;50.252;18.848;2022-08-01T05:15:53;98511.45;;;16.04;81.91
62436;BME280;48480;50.252;18.848;2022-08-01T05:18:20;98506.00;;;16.98;79.91
62436;BME280;48480;50.252;18.848;2022-08-01T05:20:47;98505.21;;;17.21;79.54
62436;BME280;48480;50.252;18.848;2022-08-01T05:23:14;98499.42;;;17.83;78.22
62436;BME280;48480;50.252;18.848;2022-08-01T05:25:40;98497.33;;;19.02;75.28
62436;BME280;48480;50.252;18.848;2022-08-01T05:28:07;98499.46;;;19.87;72.47
62436;BME280;48480;50.252;18.848;2022-08-01T05:30:34;98498.38;;;20.65;70.66
62436;BME280;48480;50.252;18.848;2022-08-01T05:33:00;98500.63;;;21.20;69.27
62436;BME280;48480;50.252;18.848;2022-08-01T05:35:27;98501.85;;;21.82;67.20
62436;BME280;48480;50.252;18.848;2022-08-01T05:37:53;98496.45;;;22.40;65.27
62436;BME280;48480;50.252;18.848;2022-08-01T05:40:20;98496.61;;;22.95;63.85
62436;BME280;48480;50.252;18.848;2022-08-01T05:42:46;98490.54;;;23.43;62.48
62436;BME280;48480;50.252;18.848;2022-08-01T05:45:13;98488.02;;;23.91;60.68
62436;BME280;48480;50.252;18.848;2022-08-01T05:47:42;98484.77;;;24.31;59.23
62436;BME280;48480;50.252;18.848;2022-08-01T05:50:21;98485.84;;;24.84;58.15
62436;BME280;48480;50.252;18.848;2022-08-01T05:52:51;98494.20;;;25.31;56.87
62436;BME280;48480;50.252;18.848;2022-08-01T05:55:17;98494.91;;;25.69;55.23
62436;BME280;48480;50.252;18.848;2022-08-01T05:57:44;98495.33;;;25.98;53.96
62436;BME280;48480;50.252;18.848;2022-08-01T06:00:11;98499.91;;;26.20;52.65
62436;BME280;48480;50.252;18.848;2022-08-01T06:02:42;98502.05;;;26.37;51.64
62436;BME280;48480;50.252;18.848;2022-08-01T06:05:09;98506.64;;;26.52;50.87
62436;BME280;48480;50.252;18.848;2022-08-01T06:07:36;98500.27;;;26.67;50.46
62436;BME280;48480;50.252;18.848;2022-08-01T06:10:05;98503.18;;;26.86;49.99
62436;BME280;48480;50.252;18.848;2022-08-01T06:12:33;98503.63;;;27.06;49.18
62436;BME280;48480;50.252;18.848;2022-08-01T06:14:59;98510.17;;;27.21;48.64
62436;BME280;48480;50.252;18.848;2022-08-01T06:17:26;98510.99;;;27.35;48.20
62436;BME280;48480;50.252;18.848;2022-08-01T06:19:52;98509.39;;;27.58;47.79
62436;BME280;48480;50.252;18.848;2022-08-01T06:22:19;98505.94;;;27.74;47.13
62436;BME280;48480;50.252;18.848;2022-08-01T06:24:48;98510.58;;;27.91;47.15
62436;BME280;48480;50.252;18.848;2022-08-01T06:27:15;98510.33;;;28.18;46.51
62436;BME280;48480;50.252;18.848;2022-08-01T06:29:41;98507.86;;;28.40;45.61
62436;BME280;48480;50.252;18.848;2022-08-01T06:32:09;98511.37;;;28.51;45.10
62436;BME280;48480;50.252;18.848;2022-08-01T06:34:36;98498.41;;;28.50;43.59
62436;BME280;48480;50.252;18.848;2022-08-01T06:37:02;98504.48;;;28.59;43.22
62436;BME280;48480;50.252;18.848;2022-08-01T06:39:29;98504.24;;;28.67;42.57
62436;BME280;48480;50.252;18.848;2022-08-01T06:41:56;98506.42;;;28.74;42.65
62436;BME280;48480;50.252;18.848;2022-08-01T06:44:22;98510.01;;;28.70;42.26
62436;BME280;48480;50.252;18.848;2022-08-01T06:46:49;98511.19;;;28.67;42.37
62436;BME280;48480;50.252;18.848;2022-08-01T06:49:16;98510.86;;;28.81;42.28
62436;BME280;48480;50.252;18.848;2022-08-01T06:51:42;98508.48;;;29.01;42.09
62436;BME280;48480;50.252;18.848;2022-08-01T06:54:09;98506.70;;;29.20;42.38
62436;BME280;48480;50.252;18.848;2022-08-01T06:56:35;98505.04;;;29.41;42.03
62436;BME280;48480;50.252;18.848;2022-08-01T06:59:02;98503.44;;;29.68;41.38
62436;BME280;48480;50.252;18.848;2022-08-01T07:01:29;98503.27;;;29.90;40.99
62436;BME280;48480;50.252;18.848;2022-08-01T07:03:55;98501.69;;;30.17;40.27
62436;BME280;48480;50.252;18.848;2022-08-01T07:06:23;98503.70;;;30.27;40.57
62436;BME280;48480;50.252;18.848;2022-08-01T07:08:51;98505.38;;;30.32;40.47
62436;BME280;48480;50.252;18.848;2022-08-01T07:11:19;98502.69;;;30.15;40.19
62436;BME280;48480;50.252;18.848;2022-08-01T07:13:45;98505.25;;;29.78;40.05
62436;BME280;48480;50.252;18.848;2022-08-01T07:16:15;98499.58;;;29.32;40.44
62436;BME280;48480;50.252;18.848;2022-08-01T07:18:42;98494.39;;;28.95;41.42
62436;BME280;48480;50.252;18.848;2022-08-01T07:21:13;98491.39;;;28.61;41.91
62436;BME280;48480;50.252;18.848;2022-08-01T07:23:45;98495.66;;;28.30;42.36
62436;BME280;48480;50.252;18.848;2022-08-01T07:26:13;98486.09;;;27.98;43.01
62436;BME280;48480;50.252;18.848;2022-08-01T07:28:42;98480.67;;;27.71;43.93
62436;BME280;48480;50.252;18.848;2022-08-01T07:31:12;98495.62;;;27.50;44.59
62436;BME280;48480;50.252;18.848;2022-08-01T07:33:39;98496.08;;;27.30;44.56
62436;BME280;48480;50.252;18.848;2022-08-01T07:36:05;98495.40;;;27.01;44.42
62436;BME280;48480;50.252;18.848;2022-08-01T07:38:34;98496.02;;;26.87;45.03
62436;BME280;48480;50.252;18.848;2022-08-01T07:41:02;98501.67;;;26.91;44.55
62436;BME280;48480;50.252;18.848;2022-08-01T07:43:28;98498.51;;;26.96;44.74
62436;BME280;48480;50.252;18.848;2022-08-01T07:45:55;98499.65;;;27.05;45.37
62436;BME280;48480;50.252;18.848;2022-08-01T07:48:28;98496.70;;;27.08;44.91
62436;BME280;48480;50.252;18.848;2022-08-01T07:50:56;98495.38;;;27.07;44.75
62436;BME280;48480;50.252;18.848;2022-08-01T07:53:23;98486.38;;;26.97;44.90
62436;BME280;48480;50.252;18.848;2022-08-01T07:55:50;98491.61;;;26.95;45.13
62436;BME280;48480;50.252;18.848;2022-08-01T07:58:17;98492.39;;;26.83;45.60
62436;BME280;48480;50.252;18.848;2022-08-01T08:00:44;98498.30;;;26.66;45.01
62436;BME280;48480;50.252;18.848;2022-08-01T08:03:10;98500.66;;;26.36;45.04
62436;BME280;48480;50.252;18.848;2022-08-01T08:05:37;98501.31;;;26.17;45.66
62436;BME280;48480;50.252;18.848;2022-08-01T08:08:08;98496.91;;;26.07;45.74
62436;BME280;48480;50.252;18.848;2022-08-01T08:10:36;98501.41;;;26.01;45.98
62436;BME280;48480;50.252;18.848;2022-08-01T08:13:03;98502.29;;;25.95;46.25
62436;BME280;48480;50.252;18.848;2022-08-01T08:15:30;98503.80;;;25.78;45.59
62436;BME280;48480;50.252;18.848;2022-08-01T08:17:59;98504.30;;;25.61;45.52
62436;BME280;48480;50.252;18.848;2022-08-01T08:20:26;98480.98;;;25.35;46.03
62436;BME280;48480;50.252;18.848;2022-08-01T08:22:59;98509.23;;;25.46;46.11
62436;BME280;48480;50.252;18.848;2022-08-01T08:25:44;98503.09;;;25.35;46.37
62436;BME280;48480;50.252;18.848;2022-08-01T08:28:27;98507.27;;;25.45;46.35
62436;BME280;48480;50.252;18.848;2022-08-01T08:31:34;98509.50;;;25.59;46.27
62436;BME280;48480;50.252;18.848;2022-08-01T08:34:04;98473.96;;;25.58;46.41
62436;BME280;48480;50.252;18.848;2022-08-01T08:36:36;98506.95;;;25.93;46.25
62436;BME280;48480;50.252;18.848;2022-08-01T08:39:56;98508.09;;;25.91;46.55
62436;BME280;48480;50.252;18.848;2022-08-01T08:42:55;98470.54;;;25.62;47.06
62436;BME280;48480;50.252;18.848;2022-08-01T08:45:45;98490.35;;;25.70;47.32
62436;BME280;48480;50.252;18.848;2022-08-01T08:48:15;98515.58;;;25.83;47.46
62436;BME280;48480;50.252;18.848;2022-08-01T08:51:00;98512.71;;;25.79;47.55
62436;BME280;48480;50.252;18.848;2022-08-01T08:53:49;98516.93;;;25.72;47.72
62436;BME280;48480;50.252;18.848;2022-08-01T08:56:20;98520.77;;;25.72;47.59
62436;BME280;48480;50.252;18.848;2022-08-01T08:59:21;98512.88;;;25.70;47.65
62436;BME280;48480;50.252;18.848;2022-08-01T09:02:13;98509.95;;;25.66;48.12
62436;BME280;48480;50.252;18.848;2022-08-01T09:05:15;98524.58;;;25.74;47.82
62436;BME280;48480;50.252;18.848;2022-08-01T09:23:54;98523.64;;;25.64;48.53
62436;BME280;48480;50.252;18.848;2022-08-01T09:32:50;98540.55;;;25.24;49.18
62436;BME280;48480;50.252;18.848;2022-08-01T09:36:45;98543.81;;;25.07;48.83
62436;BME280;48480;50.252;18.848;2022-08-01T09:40:22;98540.50;;;24.96;48.51
62436;BME280;48480;50.252;18.848;2022-08-01T09:43:10;98543.66;;;24.94;48.92
62436;BME280;48480;50.252;18.848;2022-08-01T09:46:10;98532.55;;;24.85;49.00
62436;BME280;48480;50.252;18.848;2022-08-01T09:49:13;98543.21;;;24.92;49.25
62436;BME280;48480;50.252;18.848;2022-08-01T09:52:22;98534.65;;;24.80;50.27
62436;BME280;48480;50.252;18.848;2022-08-01T09:55:29;98543.98;;;24.93;49.49
62436;BME280;48480;50.252;18.848;2022-08-01T09:58:30;98498.70;;;24.64;49.62
62436;BME280;48480;50.252;18.848;2022-08-01T10:02:03;98544.04;;;24.95;49.52
62436;BME280;48480;50.252;18.848;2022-08-01T10:04:54;98528.97;;;24.82;49.47
62436;BME280;48480;50.252;18.848;2022-08-01T10:07:56;98509.37;;;24.62;49.89
62436;BME280;48480;50.252;18.848;2022-08-01T10:11:17;98540.80;;;24.77;50.25
62436;BME280;48480;50.252;18.848;2022-08-01T10:13:55;98537.91;;;24.75;50.46
62436;BME280;48480;50.252;18.848;2022-08-01T10:16:45;98539.02;;;24.82;49.40
62436;BME280;48480;50.252;18.848;2022-08-01T10:19:38;98519.04;;;24.81;49.10
62436;BME280;48480;50.252;18.848;2022-08-01T10:22:30;98532.52;;;24.89;48.89
62436;BME280;48480;50.252;18.848;2022-08-01T10:25:17;98525.35;;;24.76;49.24
62436;BME280;48480;50.252;18.848;2022-08-01T10:27:56;98509.38;;;24.61;49.70
62436;BME280;48480;50.252;18.848;2022-08-01T10:31:13;98535.05;;;24.79;49.61
62436;BME280;48480;50.252;18.848;2022-08-01T10:33:43;98528.84;;;24.81;49.91
62436;BME280;48480;50.252;18.848;2022-08-01T10:36:19;98532.73;;;24.91;49.64
62436;BME280;48480;50.252;18.848;2022-08-01T10:38:49;98533.63;;;25.00;49.86
62436;BME280;48480;50.252;18.848;2022-08-01T10:41:18;98534.83;;;25.11;49.81
62436;BME280;48480;50.252;18.848;2022-08-01T10:43:45;98537.05;;;25.23;49.38
62436;BME280;48480;50.252;18.848;2022-08-01T10:46:12;98536.98;;;25.36;49.33
62436;BME280;48480;50.252;18.848;2022-08-01T10:48:50;98532.61;;;25.45;48.93
62436;BME280;48480;50.252;18.848;2022-08-01T10:51:22;98530.98;;;25.55;48.49
62436;BME280;48480;50.252;18.848;2022-08-01T10:53:51;98529.67;;;25.54;48.21
62436;BME280;48480;50.252;18.848;2022-08-01T10:56:19;98540.55;;;25.61;48.69
62436;BME280;48480;50.252;18.848;2022-08-01T10:58:47;98531.80;;;25.59;48.48
62436;BME280;48480;50.252;18.848;2022-08-01T11:03:43;98547.45;;;25.50;48.80
62436;BME280;48480;50.252;18.848;2022-08-01T11:06:23;98548.69;;;25.45;49.00
62436;BME280;48480;50.252;18.848;2022-08-01T11:08:53;98549.73;;;25.31;49.31
62436;BME280;48480;50.252;18.848;2022-08-01T11:11:20;98549.36;;;25.16;50.11
62436;BME280;48480;50.252;18.848;2022-08-01T11:14:01;98551.20;;;25.06;50.48
62436;BME280;48480;50.252;18.848;2022-08-01T11:16:35;98552.30;;;24.86;50.66
62436;BME280;48480;50.252;18.848;2022-08-01T11:19:04;98550.21;;;24.68;51.18
62436;BME280;48480;50.252;18.848;2022-08-01T11:21:58;98554.91;;;24.51;51.85
62436;BME280;48480;50.252;18.848;2022-08-01T11:27:19;98551.30;;;24.17;53.66
62436;BME280;48480;50.252;18.848;2022-08-01T11:32:45;98544.42;;;23.94;54.35
62436;BME280;48480;50.252;18.848;2022-08-01T11:35:14;98541.58;;;23.88;54.62
62436;BME280;48480;50.252;18.848;2022-08-01T11:37:41;98541.46;;;23.82;54.93
62436;BME280;48480;50.252;18.848;2022-08-01T11:42:47;98537.67;;;23.71;56.65
62436;BME280;48480;50.252;18.848;2022-08-01T11:45:15;98536.80;;;23.72;56.62
62436;BME280;48480;50.252;18.848;2022-08-01T11:47:50;98524.40;;;23.68;56.34
62436;BME280;48480;50.252;18.848;2022-08-01T11:50:36;98533.65;;;23.75;56.12
62436;BME280;48480;50.252;18.848;2022-08-01T11:53:05;98533.64;;;23.80;55.19
62436;BME280;48480;50.252;18.848;2022-08-01T11:55:32;98521.13;;;23.81;54.42
62436;BME280;48480;50.252;18.848;2022-08-01T11:58:04;98530.45;;;24.00;54.54
62436;BME280;48480;50.252;18.848;2022-08-01T12:00:33;98529.60;;;24.18;54.32
62436;BME280;48480;50.252;18.848;2022-08-01T12:03:05;98528.51;;;24.34;54.13
62436;BME280;48480;50.252;18.848;2022-08-01T12:05:33;98527.98;;;24.50;54.33
62436;BME280;48480;50.252;18.848;2022-08-01T12:08:01;98526.19;;;24.65;53.95
62436;BME280;48480;50.252;18.848;2022-08-01T12:10:29;98500.06;;;24.67;53.46
62436;BME280;48480;50.252;18.848;2022-08-01T12:13:05;98523.27;;;24.95;53.62
62436;BME280;48480;50.252;18.848;2022-08-01T12:15:35;98518.98;;;25.05;53.14
62436;BME280;48480;50.252;18.848;2022-08-01T12:18:04;98520.50;;;25.16;53.38
62436;BME280;48480;50.252;18.848;2022-08-01T12:20:35;98522.02;;;25.33;53.49
62436;BME280;48480;50.252;18.848;2022-08-01T12:23:05;98517.74;;;25.42;53.01
62436;BME280;48480;50.252;18.848;2022-08-01T12:25:33;98523.48;;;25.42;52.35
62436;BME280;48480;50.252;18.848;2022-08-01T12:28:02;98518.66;;;25.33;52.21
62436;BME280;48480;50.252;18.848;2022-08-01T12:30:29;98518.14;;;25.36;51.91
62436;BME280;48480;50.252;18.848;2022-08-01T12:33:03;98509.50;;;25.48;52.42
62436;BME280;48480;50.252;18.848;2022-08-01T12:35:31;98496.80;;;25.47;51.78
62436;BME280;48480;50.252;18.848;2022-08-01T12:38:20;98509.09;;;25.60;52.22
62436;BME280;48480;50.252;18.848;2022-08-01T12:40:53;98504.44;;;25.57;52.00
62436;BME280;48480;50.252;18.848;2022-08-01T12:43:22;98506.34;;;25.60;51.76
62436;BME280;48480;50.252;18.848;2022-08-01T12:46:01;98502.10;;;25.66;50.79
62436;BME280;48480;50.252;18.848;2022-08-01T12:48:30;98502.71;;;25.76;51.02
62436;BME280;48480;50.252;18.848;2022-08-01T12:50:57;98500.39;;;25.91;51.17
62436;BME280;48480;50.252;18.848;2022-08-01T12:53:26;98498.77;;;26.05;50.92
62436;BME280;48480;50.252;18.848;2022-08-01T12:58:49;98499.94;;;26.24;50.12
62436;BME280;48480;50.252;18.848;2022-08-01T13:01:25;98497.11;;;26.27;49.88
62436;BME280;48480;50.252;18.848;2022-08-01T13:04:03;98493.30;;;26.34;50.02
62436;BME280;48480;50.252;18.848;2022-08-01T13:06:32;98491.35;;;26.38;50.16
62436;BME280;48480;50.252;18.848;2022-08-01T13:09:06;98491.27;;;26.42;50.24
62436;BME280;48480;50.252;18.848;2022-08-01T13:11:33;98490.17;;;26.46;49.77
62436;BME280;48480;50.252;18.848;2022-08-01T13:16:26;98493.05;;;26.48;50.49
62436;BME280;48480;50.252;18.848;2022-08-01T13:18:55;98492.98;;;26.55;50.41
62436;BME280;48480;50.252;18.848;2022-08-01T13:21:29;98484.02;;;26.52;49.97
62436;BME280;48480;50.252;18.848;2022-08-01T13:29:35;98417.48;;;26.27;49.80
62436;BME280;48480;50.252;18.848;2022-08-01T13:32:20;98490.10;;;26.84;50.11
62436;BME280;48480;50.252;18.848;2022-08-01T13:34:48;98491.50;;;26.93;49.23
62436;BME280;48480;50.252;18.848;2022-08-01T13:37:14;98488.84;;;26.92;49.28
62436;BME280;48480;50.252;18.848;2022-08-01T13:39:44;98491.03;;;26.88;49.03
62436;BME280;48480;50.252;18.848;2022-08-01T13:42:20;98488.59;;;26.80;49.48
62436;BME280;48480;50.252;18.848;2022-08-01T13:44:47;98466.39;;;26.58;49.75
62436;BME280;48480;50.252;18.848;2022-08-01T13:47:14;98489.98;;;26.69;49.58
62436;BME280;48480;50.252;18.848;2022-08-01T13:49:43;98434.96;;;26.28;50.00
62436;BME280;48480;50.252;18.848;2022-08-01T13:52:09;98483.63;;;26.61;50.19
62436;BME280;48480;50.252;18.848;2022-08-01T13:54:43;98489.52;;;26.56;50.39
62436;BME280;48480;50.252;18.848;2022-08-01T13:57:10;98470.89;;;26.39;50.50
62436;BME280;48480;50.252;18.848;2022-08-01T13:59:37;98489.59;;;26.52;50.70
62436;BME280;48480;50.252;18.848;2022-08-01T14:02:04;98488.02;;;26.44;51.08
62436;BME280;48480;50.252;18.848;2022-08-01T14:04:31;98489.39;;;26.37;51.23
62436;BME280;48480;50.252;18.848;2022-08-01T14:07:06;98486.17;;;26.28;51.45
62436;BME280;48480;50.252;18.848;2022-08-01T14:09:33;98489.36;;;26.21;51.68